Flight Track Log - Related Links

Times and Time Zones

All times are in EST time to prevent confusion due to time zone crossing. See the SKW5550 flight status page for this flight to view local times or setup timezone preferences in your user account.

Time Position Orientation Groundspeed Altitude Reporting Facility
EST Latitude Longitude Course Direction KTS MPH feet Rate Location/Type
Thu 07:57:05 AM 44.5378 -108.9928 159° South 198 228 6,400  Level Salt Lake Center
Thu 07:58:06 AM 44.5717 -108.9464 44° Northeast 174 200 8,300 1,934 Climbing Salt Lake Center
Thu 07:59:00 AM 44.3593 -108.8118 154° Southeast  Level FlightAware Approximate
Thu 07:59:06 AM 44.5228 -108.8903 141° Southeast 236 272 10,300  Level Salt Lake Center
Thu 08:00:00 AM 44.2420 -108.7359 158° South  Level FlightAware Approximate
Thu 08:00:06 AM 44.4500 -108.8656 166° South 252 290 11,900  Level Salt Lake Center
Thu 08:01:00 AM 44.1222 -108.6682 159° South  Level FlightAware Approximate
Thu 08:01:06 AM 44.3631 -108.8194 159° South 291 335 13,800  Level Salt Lake Center
Thu 08:02:00 AM 44.0019 -108.6025 159° South  Level FlightAware Approximate
Thu 08:02:07 AM 44.2469 -108.7492 157° South 362 417 16,100  Level Salt Lake Center
Thu 08:03:07 AM 44.1489 -108.6939 158° South 378 435 17,800 1,700 Climbing Salt Lake Center
Thu 08:04:07 AM 44.0450 -108.6350 158° South 392 451 19,500 1,537 Climbing Salt Lake Center
Thu 08:05:08 AM 43.9394 -108.5736 157° South 406 467 20,900 1,240 Climbing Salt Lake Center
Thu 08:06:08 AM 43.8297 -108.5108 158° South 423 487 22,000 1,200 Climbing Salt Lake Center
Thu 08:07:08 AM 43.7153 -108.4456 158° South 441 507 23,300 1,190 Climbing Salt Lake Center
Thu 08:08:09 AM 43.6000 -108.3819 158° South 447 514 24,400 1,091 Climbing Salt Lake Center
Thu 08:09:09 AM 43.4836 -108.3144 157° South 454 522 25,500 1,050 Climbing Salt Lake Center
Thu 08:10:09 AM 43.3783 -108.2139 145° Southeast 461 531 26,500 950 Climbing Salt Lake Center
Thu 08:11:09 AM 43.2750 -108.1033 142° Southeast 469 540 27,400 893 Climbing Salt Lake Center
Thu 08:12:10 AM 43.1708 -107.9928 142° Southeast 475 547 28,300 744 Climbing Salt Lake Center
Thu 08:13:10 AM 43.0650 -107.8808 142° Southeast 480 552 28,900 600 Climbing Salt Lake Center
Thu 08:14:10 AM 42.9581 -107.7700 143° Southeast 484 557 29,500 545 Climbing Salt Lake Center
Thu 08:15:11 AM 42.8428 -107.6486 142° Southeast 488 562 30,000 446 Climbing Salt Lake Center
Thu 08:16:11 AM 42.7389 -107.5403 143° Southeast 491 565 30,400 450 Climbing Salt Lake Center
Thu 08:17:11 AM 42.6339 -107.4325 143° Southeast 494 568 30,900 298 Climbing Salt Lake Center
Thu 08:18:12 AM 42.5275 -107.3242 143° Southeast 498 573 31,000 50 Climbing Salt Lake Center
Thu 08:19:12 AM 42.4006 -107.1942 143° Southeast 506 582 31,000  Level Salt Lake Center
Thu 08:20:12 AM 42.2889 -107.0831 144° Southeast 515 593 31,000  Level Salt Lake Center
Thu 08:21:13 AM 42.1764 -106.9692 143° Southeast 522 601 31,000  Level Salt Lake Center
Thu 08:22:13 AM 42.0439 -106.8372 144° Southeast 527 606 31,000  Level Salt Lake Center
Thu 08:23:13 AM 41.9283 -106.7217 143° Southeast 533 613 31,000  Level Salt Lake Center
Thu 08:24:14 AM 41.8158 -106.6122 144° Southeast 531 611 31,000  Level Salt Lake Center
Thu 08:25:14 AM 41.6864 -106.4847 144° Southeast 522 601 31,000  Level Salt Lake Center
Thu 08:26:14 AM 41.5742 -106.3764 144° Southeast 521 600 31,000  Level Salt Lake Center
Thu 08:27:39 AM 41.4094 -106.2136 143° Southeast 516 594 31,000  Level Denver Center
Thu 08:28:40 AM 41.3003 -106.1075 144° Southeast 510 587 31,000 -446 Level Denver Center
Thu 08:29:40 AM 41.1906 -106.0011 144° Southeast 510 587 30,100 -1,190 Descending Denver Center
Thu 08:30:41 AM 41.0625 -105.8778 144° Southeast 510 587 28,600 -1,279 Descending Denver Center
Thu 08:31:42 AM 40.9614 -105.7803 144° Southeast 498 573 27,500 -1,140 Descending Denver Center
Thu 08:32:42 AM 40.8517 -105.6742 144° Southeast 492 566 26,300 -1,190 Descending Denver Center
Thu 08:33:43 AM 40.7442 -105.5744 145° Southeast 478 550 25,100 -1,180 Descending Denver Center
Thu 08:34:44 AM 40.6394 -105.4750 144° Southeast 467 537 23,900 -1,240 Descending Denver Center
Thu 08:35:44 AM 40.5572 -105.3539 132° Southeast 450 518 22,600 -1,438 Descending Denver Center
Thu 08:36:45 AM 40.4742 -105.2250 130° Southeast 413 475 21,000 -1,672 Descending Denver Center
Thu 08:37:46 AM 40.3814 -105.1478 148° Southeast 390 449 19,200 -1,770 Descending Denver Center
Thu 08:38:47 AM 40.2886 -105.0742 149° Southeast 390 449 17,400 -1,537 Descending Denver Center
Thu 08:39:47 AM 40.1981 -105.0019 149° Southeast 378 435 16,100 -1,240 Descending Denver Center
Thu 08:40:48 AM 40.1103 -104.9319 149° Southeast 371 427 14,900 -1,230 Descending Denver Center
Thu 08:41:49 AM 40.0189 -104.8589 149° Southeast 360 414 13,600 -1,240 Descending Denver Center
Thu 08:42:49 AM 39.9353 -104.8072 155° Southeast 338 389 12,400 -1,091 Descending Denver Center
Thu 08:43:50 AM 39.8447 -104.8089 181° South 328 377 11,400 -738 Descending Denver Center
Thu 08:44:51 AM 39.7669 -104.8103 181° South 282 325 10,900 -689 Descending Denver Center
Thu 08:45:52 AM 39.7044 -104.7861 163° South 245 282 10,000 -1,140 Descending Denver Center
Thu 08:46:52 AM 39.7122 -104.7086 83° East 232 267 8,600 -1,339 Descending Denver Center
Thu 08:47:53 AM 39.7589 -104.6700 32° Northeast 195 224 7,300 -1,230 Descending Denver Center
Thu 08:48:54 AM 39.7978 -104.6608 10° North 141 162 6,100 -934 Descending Denver Center
Thu 08:49:55 AM 39.8383 -104.6600 North 149 171 5,400 -689 Descending Denver Center

Login

Don't have an account? Register now (free) for customized features, flight alerts, and more!